Time;durP1;ratioP1;P1;durP2;ratioP2;P2;SDS_P1;SDS_P2;PMS_P1;PMS_P2;Temp;Humidity;BMP_temperature;BMP_pressure;BME280_temperature;BME280_humidity;BME280_pressure;Samples;Min_cycle;Max_cycle;Signal;HPM_P1;HPM_P2
2023/01/29 00:01:10;;;;;;;5.45;3.40;;;4.00;99.90;;;;;;5089958;28;20127;-62
2023/01/29 00:03:35;;;;;;;7.05;3.22;;;4.00;99.90;;;;;;5089781;28;20452;-63
2023/01/29 00:06:06;;;;;;;7.85;3.85;;;4.00;99.90;;;;;;5087035;28;20435;-63
2023/01/29 00:08:35;;;;;;;5.63;3.83;;;4.00;99.90;;;;;;5087318;28;20036;-63
2023/01/29 00:11:03;;;;;;;6.25;3.90;;;4.00;99.90;;;;;;5091027;28;20040;-63
2023/01/29 00:13:28;;;;;;;5.95;3.47;;;4.00;99.90;;;;;;5106757;28;20072;-63
2023/01/29 00:15:55;;;;;;;6.97;3.90;;;4.00;99.90;;;;;;5107539;27;20102;-63
2023/01/29 00:18:22;;;;;;;11.27;4.20;;;4.00;99.90;;;;;;5120032;27;20185;-63
2023/01/29 00:20:48;;;;;;;13.57;4.32;;;3.90;99.90;;;;;;5112611;27;20056;-63
2023/01/29 00:23:14;;;;;;;5.72;3.22;;;3.90;99.90;;;;;;5109951;28;20047;-62
2023/01/29 00:25:41;;;;;;;9.82;4.68;;;4.00;99.90;;;;;;5108257;27;20171;-63
2023/01/29 00:28:07;;;;;;;6.43;4.20;;;4.00;99.90;;;;;;5107974;27;20059;-63
2023/01/29 00:30:33;;;;;;;4.63;3.92;;;4.00;99.90;;;;;;5105175;28;20058;-63
2023/01/29 00:32:59;;;;;;;14.70;4.70;;;4.00;99.90;;;;;;5101156;28;20489;-63
2023/01/29 00:35:24;;;;;;;5.43;4.25;;;4.00;99.90;;;;;;5105932;28;20115;-63
2023/01/29 00:37:50;;;;;;;9.65;3.90;;;4.00;99.90;;;;;;5106383;28;20154;-63
2023/01/29 00:40:16;;;;;;;9.77;3.78;;;4.00;99.90;;;;;;5106644;27;20179;-63
2023/01/29 00:45:28;;;;;;;8.68;4.60;;;3.90;99.90;;;;;;5105813;28;20040;-63
2023/01/29 00:47:54;;;;;;;6.22;3.85;;;4.00;99.90;;;;;;5105815;28;20065;-63
2023/01/29 00:50:20;;;;;;;8.65;4.20;;;4.00;99.90;;;;;;5098563;28;20036;-63
2023/01/29 00:52:47;;;;;;;5.95;4.40;;;4.00;99.90;;;;;;5096457;28;20040;-63
2023/01/29 00:55:13;;;;;;;9.63;4.78;;;4.00;99.90;;;;;;5086071;28;20427;-63
2023/01/29 00:57:39;;;;;;;9.38;4.60;;;4.00;99.90;;;;;;5092435;28;20040;-63
2023/01/29 01:00:07;;;;;;;5.95;4.35;;;3.90;99.90;;;;;;5089755;28;20116;-63
2023/01/29 01:05:17;;;;;;;8.15;4.45;;;4.00;99.90;;;;;;5105030;28;20413;-63
2023/01/29 01:07:46;;;;;;;7.30;4.70;;;3.90;99.90;;;;;;5100119;28;20075;-63
2023/01/29 01:10:23;;;;;;;9.32;4.60;;;3.90;99.90;;;;;;5102128;28;20051;-63
2023/01/29 01:13:05;;;;;;;6.88;4.55;;;3.90;99.90;;;;;;5096198;28;20035;-63
2023/01/29 01:15:34;;;;;;;6.82;4.53;;;3.90;99.90;;;;;;5111050;28;20040;-63
2023/01/29 01:18:02;;;;;;;7.60;4.78;;;3.90;99.90;;;;;;5111074;28;20043;-63
2023/01/29 01:20:30;;;;;;;6.05;5.13;;;3.90;99.90;;;;;;5100568;28;20066;-63
2023/01/29 01:22:56;;;;;;;9.50;6.10;;;3.90;99.90;;;;;;5107596;28;20082;-63
2023/01/29 01:25:25;;;;;;;10.02;5.07;;;3.90;99.90;;;;;;5110810;27;20042;-63
2023/01/29 01:27:55;;;;;;;14.15;5.90;;;3.90;99.90;;;;;;5112871;27;20050;-63
2023/01/29 01:30:22;;;;;;;6.75;5.50;;;3.90;99.90;;;;;;5110368;28;20054;-63
2023/01/29 01:32:48;;;;;;;10.18;6.13;;;3.90;99.90;;;;;;5110514;28;20436;-63
2023/01/29 01:35:14;;;;;;;12.60;6.07;;;3.90;99.90;;;;;;5108332;28;20050;-63
2023/01/29 01:37:41;;;;;;;9.93;6.32;;;3.90;99.90;;;;;;5115782;27;20039;-63
2023/01/29 01:40:16;;;;;;;12.13;6.53;;;3.90;99.90;;;;;;5110742;28;20075;-63
2023/01/29 01:42:48;;;;;;;10.88;5.57;;;3.90;99.90;;;;;;5091931;28;20047;-63
2023/01/29 01:45:31;;;;;;;13.52;6.38;;;3.90;99.90;;;;;;5110337;28;20085;-63
2023/01/29 01:48:12;;;;;;;11.93;6.57;;;4.00;99.90;;;;;;5110625;28;20077;-62
2023/01/29 01:50:45;;;;;;;13.52;5.65;;;3.90;99.90;;;;;;5142625;27;20481;-63
2023/01/29 01:53:14;;;;;;;12.93;6.22;;;4.00;99.90;;;;;;5111462;27;20039;-63
2023/01/29 01:55:55;;;;;;;10.88;7.22;;;4.00;99.90;;;;;;5117422;27;20040;-63
2023/01/29 01:58:25;;;;;;;12.15;7.47;;;4.00;99.90;;;;;;5111546;27;20036;-63
2023/01/29 02:00:51;;;;;;;10.15;6.65;;;4.00;99.90;;;;;;5142953;27;20079;-63
2023/01/29 02:11:46;;;;;;;13.95;6.95;;;4.00;99.90;;;;;;5110986;27;20046;-63
2023/01/29 02:14:12;;;;;;;13.98;6.20;;;4.00;99.90;;;;;;5115253;27;20043;-63
2023/01/29 02:16:38;;;;;;;17.40;8.07;;;4.00;99.90;;;;;;5109144;28;20043;-63
2023/01/29 02:19:22;;;;;;;16.90;7.60;;;4.10;99.90;;;;;;5110027;28;20469;-63
2023/01/29 02:22:04;;;;;;;14.77;7.53;;;4.00;99.90;;;;;;5110555;27;20043;-63
2023/01/29 02:24:32;;;;;;;15.75;8.63;;;4.10;99.90;;;;;;5109259;28;20126;-63
2023/01/29 02:27:13;;;;;;;12.18;7.65;;;4.10;99.90;;;;;;5109944;27;20051;-63
2023/01/29 02:29:39;;;;;;;9.68;7.75;;;4.10;99.90;;;;;;5118044;27;20096;-63
2023/01/29 02:32:29;;;;;;;13.35;7.88;;;4.10;99.90;;;;;;5110990;27;20090;-63
2023/01/29 02:35:24;;;;;;;14.57;8.77;;;4.10;99.90;;;;;;5109423;28;20473;-63
2023/01/29 02:38:10;;;;;;;13.55;7.95;;;4.00;99.90;;;;;;5107983;28;20305;-63
2023/01/29 02:41:04;;;;;;;16.08;8.80;;;4.10;99.90;;;;;;5110895;27;20131;-63
2023/01/29 02:43:39;;;;;;;19.00;8.55;;;4.10;99.90;;;;;;5108641;28;20176;-63
2023/01/29 02:46:26;;;;;;;11.43;8.80;;;4.10;99.90;;;;;;5109290;28;20485;-63
2023/01/29 02:49:18;;;;;;;13.10;8.18;;;4.10;99.90;;;;;;5096127;28;20126;-63
2023/01/29 02:51:59;;;;;;;13.75;8.32;;;4.10;99.90;;;;;;5110074;27;20075;-63
2023/01/29 02:54:30;;;;;;;19.40;8.63;;;4.10;99.90;;;;;;5109085;28;20493;-63
2023/01/29 02:57:33;;;;;;;11.63;7.32;;;4.10;99.90;;;;;;5107468;28;20072;-63
2023/01/29 03:00:17;;;;;;;12.95;9.05;;;4.10;99.90;;;;;;5103670;27;20052;-63
2023/01/29 03:03:06;;;;;;;12.70;8.90;;;4.10;99.90;;;;;;5118197;27;20031;-63
2023/01/29 03:06:25;;;;;;;18.02;10.20;;;4.10;99.90;;;;;;5109150;27;20039;-63
2023/01/29 03:09:03;;;;;;;18.95;8.68;;;4.10;99.90;;;;;;5074309;28;20048;-63
2023/01/29 03:11:46;;;;;;;13.45;9.18;;;4.10;99.90;;;;;;5109374;27;20410;-63
2023/01/29 03:14:17;;;;;;;15.93;9.70;;;4.10;99.90;;;;;;5136287;27;20388;-63
2023/01/29 03:16:49;;;;;;;11.65;9.52;;;4.10;99.90;;;;;;5119568;27;20323;-63
2023/01/29 03:19:38;;;;;;;22.30;12.20;;;4.10;99.90;;;;;;5142389;27;20062;-63
2023/01/29 03:22:07;;;;;;;23.33;11.18;;;4.10;99.90;;;;;;5108661;28;20373;-63
2023/01/29 03:33:11;;;;;;;16.40;8.98;;;4.10;99.90;;;;;;5108503;28;20402;-63
2023/01/29 03:35:47;;;;;;;20.35;12.98;;;4.10;99.90;;;;;;5108935;28;20043;-63
2023/01/29 03:38:14;;;;;;;17.83;11.48;;;4.10;99.90;;;;;;5089958;28;20047;-63
2023/01/29 03:41:04;;;;;;;21.35;12.85;;;4.10;99.90;;;;;;5108601;28;20477;-63
2023/01/29 03:43:51;;;;;;;19.45;12.93;;;4.10;99.90;;;;;;5106953;28;20047;-63
2023/01/29 03:46:30;;;;;;;18.00;13.10;;;4.20;99.90;;;;;;5109047;27;20509;-63
2023/01/29 03:49:16;;;;;;;28.38;13.30;;;4.10;99.90;;;;;;5108418;28;20122;-63
2023/01/29 03:52:01;;;;;;;27.33;15.23;;;4.20;99.90;;;;;;5106194;28;20281;-63
2023/01/29 03:55:05;;;;;;;22.30;14.50;;;4.10;99.90;;;;;;5108260;28;20101;-63
2023/01/29 03:57:41;;;;;;;23.42;14.82;;;4.10;99.90;;;;;;5100819;28;20397;-63
2023/01/29 04:00:39;;;;;;;23.75;14.65;;;4.10;99.90;;;;;;5107579;28;20043;-63
2023/01/29 04:03:07;;;;;;;21.88;13.48;;;4.10;99.90;;;;;;5111927;27;20457;-63
2023/01/29 04:06:04;;;;;;;17.50;10.68;;;4.10;99.90;;;;;;5107459;28;20081;-63
2023/01/29 04:08:33;;;;;;;22.33;13.90;;;4.10;99.90;;;;;;5106927;28;20054;-63
2023/01/29 04:11:04;;;;;;;25.05;14.13;;;4.10;99.90;;;;;;5108169;28;20047;-63
2023/01/29 04:13:32;;;;;;;17.50;11.75;;;4.10;99.90;;;;;;5106428;27;20065;-63
2023/01/29 04:16:00;;;;;;;14.63;8.90;;;4.10;99.90;;;;;;5112632;27;20382;-63
2023/01/29 04:18:26;;;;;;;20.35;14.65;;;4.20;99.90;;;;;;5107229;28;20082;-63
2023/01/29 04:20:52;;;;;;;19.45;11.70;;;4.20;99.90;;;;;;5107823;28;20050;-63
2023/01/29 04:23:25;;;;;;;21.52;12.32;;;4.20;99.90;;;;;;5107680;28;20040;-63
2023/01/29 04:26:21;;;;;;;22.30;12.90;;;4.20;99.90;;;;;;5105287;28;20459;-63
2023/01/29 04:29:15;;;;;;;15.45;10.63;;;4.20;99.90;;;;;;5107276;28;20524;-63
2023/01/29 04:32:11;;;;;;;20.40;13.43;;;4.20;99.90;;;;;;5093957;28;20158;-63
2023/01/29 04:34:58;;;;;;;21.83;13.52;;;4.20;99.90;;;;;;5108718;27;20055;-63
2023/01/29 04:37:42;;;;;;;17.10;11.23;;;4.10;99.90;;;;;;5106929;28;20055;-63
2023/01/29 04:40:30;;;;;;;13.68;9.20;;;4.20;99.90;;;;;;5107177;28;20047;-63
2023/01/29 04:43:22;;;;;;;16.27;11.18;;;4.20;99.90;;;;;;5099840;28;20080;-63
2023/01/29 04:46:12;;;;;;;20.02;13.23;;;4.20;99.90;;;;;;5115336;28;20051;-63
2023/01/29 04:49:07;;;;;;;21.88;11.25;;;4.20;99.90;;;;;;5092459;28;20509;-63
2023/01/29 04:51:57;;;;;;;18.77;13.57;;;4.20;99.90;;;;;;5102626;28;20114;-63
2023/01/29 04:54:41;;;;;;;14.55;10.10;;;4.20;99.90;;;;;;5108023;28;20040;-63
2023/01/29 04:57:28;;;;;;;15.38;10.75;;;4.20;99.90;;;;;;5106779;28;20044;-63
2023/01/29 05:00:04;;;;;;;24.02;11.95;;;4.20;99.90;;;;;;5106845;28;20485;-62
2023/01/29 05:02:32;;;;;;;16.75;12.68;;;4.20;99.90;;;;;;5116664;28;20066;-62
2023/01/29 05:04:58;;;;;;;24.77;15.65;;;4.20;99.90;;;;;;5112520;27;20043;-63
2023/01/29 05:07:27;;;;;;;22.85;14.55;;;4.20;99.90;;;;;;5107442;28;20508;-63
2023/01/29 05:09:55;;;;;;;19.20;11.85;;;4.20;99.90;;;;;;5106037;28;20519;-63
2023/01/29 05:12:27;;;;;;;23.30;16.00;;;4.20;99.90;;;;;;5108261;28;20079;-63
2023/01/29 05:14:58;;;;;;;29.83;16.13;;;4.20;99.90;;;;;;5108372;28;20079;-63
2023/01/29 05:17:24;;;;;;;22.50;13.98;;;4.10;99.90;;;;;;5105628;28;20485;-63
2023/01/29 05:19:50;;;;;;;22.25;15.00;;;4.20;99.90;;;;;;5107197;28;20051;-63
2023/01/29 05:22:21;;;;;;;18.25;11.20;;;4.20;99.90;;;;;;5095632;28;20048;-63
2023/01/29 05:24:47;;;;;;;24.65;15.55;;;4.10;99.90;;;;;;5092919;27;20070;-63
2023/01/29 05:30:06;;;;;;;27.13;16.92;;;4.10;99.90;;;;;;5105466;28;20055;-63
2023/01/29 05:32:32;;;;;;;24.58;15.85;;;4.10;99.90;;;;;;5105822;28;20052;-63
2023/01/29 05:34:58;;;;;;;23.75;16.55;;;4.10;99.90;;;;;;5099106;27;20094;-63
2023/01/29 05:37:24;;;;;;;24.55;11.57;;;4.10;99.90;;;;;;5100259;28;20075;-63
2023/01/29 05:39:49;;;;;;;24.05;16.83;;;4.10;99.90;;;;;;5108223;28;20040;-63
2023/01/29 05:42:15;;;;;;;28.13;18.27;;;4.10;99.90;;;;;;5116841;27;20478;-63
2023/01/29 05:44:41;;;;;;;25.77;17.10;;;4.10;99.90;;;;;;5113502;28;20050;-63
2023/01/29 05:47:06;;;;;;;30.13;18.13;;;4.10;99.90;;;;;;5108930;28;20039;-63
2023/01/29 05:49:32;;;;;;;30.25;18.50;;;4.10;99.90;;;;;;5106833;28;20111;-63
2023/01/29 05:51:58;;;;;;;29.77;17.10;;;4.10;99.90;;;;;;5111739;27;20054;-63
2023/01/29 05:54:24;;;;;;;29.52;17.73;;;4.10;99.90;;;;;;5119186;27;20389;-62
2023/01/29 05:56:49;;;;;;;31.30;17.60;;;4.00;99.90;;;;;;5108090;27;20056;-63
2023/01/29 05:59:15;;;;;;;21.55;15.77;;;4.10;99.90;;;;;;5116290;27;20483;-63
2023/01/29 06:01:41;;;;;;;26.25;15.00;;;4.00;99.90;;;;;;5109080;27;20885;-63
2023/01/29 06:04:08;;;;;;;22.00;14.55;;;4.00;99.90;;;;;;5113581;27;20080;-63
2023/01/29 06:06:33;;;;;;;23.48;16.15;;;4.00;99.90;;;;;;5109879;28;20059;-63
2023/01/29 06:08:59;;;;;;;24.80;15.52;;;4.00;99.90;;;;;;5107336;28;20048;-63
2023/01/29 06:11:25;;;;;;;23.42;15.68;;;4.00;99.90;;;;;;5109251;28;20054;-63
2023/01/29 06:13:50;;;;;;;13.82;8.32;;;4.00;99.90;;;;;;5109361;28;20044;-63
2023/01/29 06:16:17;;;;;;;23.30;15.20;;;4.00;99.90;;;;;;5110442;28;20412;-63
2023/01/29 06:18:42;;;;;;;19.48;13.05;;;4.10;99.90;;;;;;5112763;27;20265;-62
2023/01/29 06:21:11;;;;;;;23.92;16.02;;;4.00;99.90;;;;;;5104834;28;20036;-63
2023/01/29 06:23:37;;;;;;;27.77;17.63;;;4.00;99.90;;;;;;5099046;28;20126;-63
2023/01/29 06:26:09;;;;;;;23.90;14.43;;;4.00;99.90;;;;;;5108302;28;20046;-63
2023/01/29 06:28:35;;;;;;;23.65;15.77;;;4.10;99.90;;;;;;5111661;27;20052;-63
2023/01/29 06:31:02;;;;;;;23.25;16.08;;;4.10;99.90;;;;;;5108799;28;20082;-63
2023/01/29 06:33:28;;;;;;;24.02;16.23;;;4.00;99.90;;;;;;5110188;28;20039;-63
2023/01/29 06:35:58;;;;;;;24.98;16.00;;;4.10;99.90;;;;;;5108640;28;20397;-63
2023/01/29 06:38:25;;;;;;;20.75;14.65;;;4.00;99.90;;;;;;5117560;27;20412;-63
2023/01/29 06:40:52;;;;;;;29.65;17.23;;;4.10;99.90;;;;;;5108944;28;20514;-63
2023/01/29 06:43:18;;;;;;;30.38;16.38;;;4.00;99.90;;;;;;5108442;28;20051;-63
2023/01/29 06:45:52;;;;;;;23.67;16.52;;;4.00;99.90;;;;;;5109551;28;20572;-63
2023/01/29 06:48:18;;;;;;;24.65;16.40;;;4.00;99.90;;;;;;5108335;27;20479;-63
2023/01/29 06:50:44;;;;;;;22.80;15.43;;;4.10;99.90;;;;;;5119867;27;20436;-63
2023/01/29 06:53:10;;;;;;;28.02;16.48;;;4.00;99.90;;;;;;5108089;28;20144;-63
2023/01/29 06:55:36;;;;;;;23.42;14.15;;;4.00;99.90;;;;;;5110096;28;20061;-63
2023/01/29 06:58:06;;;;;;;19.08;13.63;;;4.00;99.90;;;;;;5109498;27;20039;-63
2023/01/29 07:00:32;;;;;;;21.88;13.18;;;4.10;99.90;;;;;;5102199;27;20047;-63
2023/01/29 07:02:58;;;;;;;23.77;16.13;;;4.10;99.90;;;;;;5108697;28;20097;-63
2023/01/29 07:05:24;;;;;;;27.23;16.98;;;4.10;99.90;;;;;;5108517;28;20035;-63
2023/01/29 07:07:50;;;;;;;23.85;13.43;;;4.00;99.90;;;;;;5109358;28;20394;-63
2023/01/29 07:10:15;;;;;;;29.73;16.48;;;4.10;99.90;;;;;;5098730;27;20040;-63
2023/01/29 07:12:41;;;;;;;33.28;17.38;;;4.10;99.90;;;;;;5107481;28;20043;-63
2023/01/29 07:15:07;;;;;;;29.17;17.05;;;4.10;99.90;;;;;;5107913;28;20036;-63
2023/01/29 07:17:33;;;;;;;29.73;16.33;;;4.10;99.90;;;;;;5107552;28;20044;-63
2023/01/29 07:19:59;;;;;;;27.27;15.20;;;4.10;99.90;;;;;;5106555;28;20080;-63
2023/01/29 07:22:25;;;;;;;25.27;16.10;;;4.10;99.90;;;;;;5107191;28;20078;-63
2023/01/29 07:24:51;;;;;;;22.75;14.52;;;4.10;99.90;;;;;;5108903;28;20043;-63
2023/01/29 07:27:16;;;;;;;27.10;16.83;;;4.10;99.90;;;;;;5106249;28;20057;-63
2023/01/29 07:29:42;;;;;;;22.67;14.23;;;4.20;99.90;;;;;;5112452;27;20091;-63
2023/01/29 07:32:08;;;;;;;26.95;13.35;;;4.20;99.90;;;;;;5114259;27;20045;-63
2023/01/29 07:34:33;;;;;;;27.13;16.80;;;4.20;99.90;;;;;;5108663;28;20122;-63
2023/01/29 07:36:59;;;;;;;27.58;15.98;;;4.20;99.90;;;;;;5108187;28;20519;-63
2023/01/29 07:39:25;;;;;;;27.55;18.83;;;4.20;99.90;;;;;;5108228;28;20087;-63
2023/01/29 07:41:51;;;;;;;20.73;10.38;;;4.20;99.90;;;;;;5108441;28;20040;-63
2023/01/29 07:44:17;;;;;;;24.90;16.52;;;4.30;99.90;;;;;;5107733;27;20418;-63
2023/01/29 07:46:42;;;;;;;25.55;16.75;;;4.20;99.90;;;;;;5107253;28;20493;-63
2023/01/29 07:49:08;;;;;;;22.88;14.55;;;4.30;99.90;;;;;;5106599;27;20062;-63
2023/01/29 07:51:34;;;;;;;26.88;17.98;;;4.30;99.90;;;;;;5108311;28;20555;-63
2023/01/29 07:54:00;;;;;;;28.80;17.58;;;4.30;99.90;;;;;;5107250;28;20055;-63
2023/01/29 07:56:25;;;;;;;29.50;18.17;;;4.30;99.90;;;;;;5107189;28;20044;-63
2023/01/29 07:58:51;;;;;;;27.70;17.08;;;4.40;99.90;;;;;;5106585;28;20099;-63
2023/01/29 08:01:18;;;;;;;13.57;9.18;;;4.40;99.90;;;;;;5110253;27;20040;-63
2023/01/29 08:03:44;;;;;;;25.95;16.58;;;4.30;99.90;;;;;;5109615;27;20462;-63
2023/01/29 08:06:09;;;;;;;29.48;18.75;;;4.40;99.90;;;;;;5107058;28;20105;-63
2023/01/29 08:08:35;;;;;;;27.75;17.45;;;4.40;99.90;;;;;;5108023;28;20082;-63
2023/01/29 08:11:03;;;;;;;29.45;17.30;;;4.40;99.90;;;;;;5104928;27;20406;-63
2023/01/29 08:13:29;;;;;;;17.95;13.45;;;4.40;99.90;;;;;;5107872;28;20046;-63
2023/01/29 08:15:59;;;;;;;31.63;17.52;;;4.40;99.90;;;;;;5107558;28;20190;-63
2023/01/29 08:18:25;;;;;;;25.77;17.38;;;4.40;99.90;;;;;;5107776;28;20047;-63
2023/01/29 08:20:51;;;;;;;28.17;17.45;;;4.40;99.90;;;;;;5107705;28;20089;-63
2023/01/29 08:23:17;;;;;;;27.38;18.08;;;4.40;99.90;;;;;;5106882;28;20051;-63
2023/01/29 08:25:43;;;;;;;24.00;16.67;;;4.40;99.90;;;;;;5108289;28;20047;-63
2023/01/29 08:28:10;;;;;;;25.80;14.50;;;4.40;99.90;;;;;;5106183;28;20039;-63
2023/01/29 08:30:37;;;;;;;19.17;12.63;;;4.40;99.90;;;;;;5108326;28;20049;-63
2023/01/29 08:33:03;;;;;;;32.40;17.63;;;4.40;99.90;;;;;;5103166;28;20051;-63
2023/01/29 08:35:29;;;;;;;17.02;12.05;;;4.50;99.90;;;;;;5104219;28;20477;-63
2023/01/29 08:38:00;;;;;;;25.70;15.38;;;4.40;99.90;;;;;;5085865;28;20524;-62
2023/01/29 08:40:30;;;;;;;25.60;17.60;;;4.50;99.90;;;;;;5094944;28;20047;-63
2023/01/29 08:43:04;;;;;;;19.23;12.38;;;4.50;99.90;;;;;;5088456;28;20028;-63
2023/01/29 08:45:33;;;;;;;25.42;16.90;;;4.50;99.90;;;;;;5085967;28;20085;-63
2023/01/29 08:47:58;;;;;;;27.40;18.33;;;4.50;99.90;;;;;;5087579;28;20127;-63
2023/01/29 08:50:24;;;;;;;21.05;13.95;;;4.50;99.90;;;;;;5067773;28;20127;-63
2023/01/29 08:52:51;;;;;;;33.42;19.25;;;4.50;99.90;;;;;;5098174;28;20055;-63
2023/01/29 08:55:17;;;;;;;27.98;13.88;;;4.50;99.90;;;;;;5104186;28;20079;-63
2023/01/29 08:57:42;;;;;;;27.63;14.15;;;4.50;99.90;;;;;;5102172;28;20063;-63
2023/01/29 09:00:10;;;;;;;12.23;7.85;;;4.60;99.90;;;;;;5100258;28;20067;-62
2023/01/29 09:02:36;;;;;;;23.08;16.65;;;4.60;99.90;;;;;;5101347;28;20115;-63
2023/01/29 09:05:03;;;;;;;24.13;15.57;;;4.60;99.90;;;;;;5103315;28;20118;-63
2023/01/29 09:07:29;;;;;;;24.05;14.00;;;4.60;99.90;;;;;;5098837;28;20497;-63
2023/01/29 09:09:54;;;;;;;31.52;19.02;;;4.70;99.90;;;;;;5101096;28;20043;-63
2023/01/29 09:12:21;;;;;;;18.67;9.90;;;4.60;99.90;;;;;;5106926;28;20043;-63
2023/01/29 09:14:47;;;;;;;25.48;15.07;;;4.70;99.90;;;;;;5086571;28;20127;-63
2023/01/29 09:17:13;;;;;;;32.72;18.30;;;4.70;99.90;;;;;;5085806;28;20560;-63
2023/01/29 09:19:38;;;;;;;25.50;18.02;;;4.70;99.90;;;;;;5086482;28;20048;-63
2023/01/29 09:22:04;;;;;;;29.30;19.05;;;4.70;99.90;;;;;;5089668;28;20036;-63
2023/01/29 09:24:31;;;;;;;31.00;21.52;;;4.70;99.90;;;;;;5090900;27;20184;-63
2023/01/29 09:26:57;;;;;;;31.77;20.58;;;4.60;99.90;;;;;;5107704;27;20109;-63
2023/01/29 09:29:23;;;;;;;25.27;17.42;;;4.70;99.90;;;;;;5089234;28;20088;-63
2023/01/29 09:31:49;;;;;;;32.28;19.27;;;4.60;99.90;;;;;;5091767;28;20048;-63
2023/01/29 09:34:15;;;;;;;27.02;19.15;;;4.70;99.90;;;;;;5097604;27;20048;-63
2023/01/29 09:36:40;;;;;;;18.48;12.65;;;4.70;99.90;;;;;;5089858;28;20097;-63
2023/01/29 09:39:06;;;;;;;29.67;18.33;;;4.70;99.90;;;;;;5090824;28;20071;-63
2023/01/29 09:41:34;;;;;;;30.95;17.58;;;4.60;99.90;;;;;;5089049;28;20052;-63
2023/01/29 09:44:03;;;;;;;23.50;15.82;;;4.60;99.90;;;;;;5098559;27;20074;-63
2023/01/29 09:46:45;;;;;;;32.20;20.20;;;4.70;99.90;;;;;;5103046;28;20126;-63
2023/01/29 09:49:24;;;;;;;23.48;15.43;;;4.70;99.90;;;;;;5104870;28;20039;-63
2023/01/29 09:51:56;;;;;;;30.25;18.13;;;4.60;99.90;;;;;;5105176;28;20072;-63
2023/01/29 09:54:27;;;;;;;27.08;17.33;;;4.60;99.90;;;;;;5104685;27;20059;-64
2023/01/29 09:56:55;;;;;;;33.38;18.13;;;4.70;99.90;;;;;;5102993;28;20048;-63
2023/01/29 09:59:26;;;;;;;31.27;16.27;;;4.70;99.90;;;;;;5099442;28;20123;-64
2023/01/29 10:02:12;;;;;;;28.90;18.95;;;4.60;99.90;;;;;;5106956;28;20158;-63
2023/01/29 10:05:04;;;;;;;29.67;18.67;;;4.60;99.90;;;;;;5105800;27;20046;-64
2023/01/29 10:07:54;;;;;;;26.65;16.55;;;4.70;99.90;;;;;;5103669;28;20056;-64
2023/01/29 10:10:43;;;;;;;;;;;4.70;99.90;;;;;;5077354;28;20087;-63
2023/01/29 10:13:24;;;;;;;27.98;17.10;;;4.70;99.90;;;;;;5094784;28;20296;-64
2023/01/29 10:16:31;;;;;;;40.50;24.30;;;4.70;99.90;;;;;;5098356;27;20078;-63
2023/01/29 10:19:06;;;;;;;35.58;21.92;;;4.60;99.90;;;;;;5088188;28;20451;-64
2023/01/29 10:22:06;;;;;;;35.35;21.48;;;4.70;99.90;;;;;;5087327;28;20063;-63
2023/01/29 10:24:31;;;;;;;35.85;20.85;;;4.80;99.90;;;;;;5088366;28;20036;-63
2023/01/29 10:26:59;;;;;;;36.05;18.75;;;4.80;99.90;;;;;;5107397;27;20089;-63
2023/01/29 10:29:28;;;;;;;40.55;22.77;;;4.80;99.90;;;;;;5094807;27;20084;-64
2023/01/29 10:32:03;;;;;;;38.80;20.75;;;4.80;99.90;;;;;;5092069;28;20067;-63
2023/01/29 10:34:32;;;;;;;36.22;21.70;;;4.90;99.90;;;;;;5088651;28;20032;-63
2023/01/29 10:36:58;;;;;;;24.90;15.87;;;4.90;99.90;;;;;;5099345;27;20053;-63
2023/01/29 10:39:25;;;;;;;35.45;20.73;;;5.00;99.90;;;;;;5089042;28;20173;-63
2023/01/29 10:42:13;;;;;;;35.78;21.95;;;5.00;99.90;;;;;;5088543;28;20040;-63
2023/01/29 10:44:58;;;;;;;36.45;21.02;;;5.00;99.90;;;;;;5088938;28;20044;-64
2023/01/29 10:47:43;;;;;;;41.90;22.60;;;5.10;99.90;;;;;;5094508;27;20105;-64
2023/01/29 10:50:16;;;;;;;34.50;22.70;;;5.10;99.90;;;;;;5088208;28;20036;-63
2023/01/29 10:53:06;;;;;;;36.70;19.00;;;5.20;99.90;;;;;;5088674;28;20086;-64
2023/01/29 10:55:55;;;;;;;32.85;22.48;;;5.20;99.90;;;;;;5088479;28;20073;-63
2023/01/29 10:58:30;;;;;;;26.10;16.60;;;5.20;99.90;;;;;;5088278;28;20127;-64
2023/01/29 11:00:57;;;;;;;25.10;15.82;;;5.20;99.90;;;;;;5087539;28;20178;-63
2023/01/29 11:03:31;;;;;;;46.00;24.17;;;5.20;99.90;;;;;;5092000;28;20549;-63
2023/01/29 11:06:15;;;;;;;36.53;21.33;;;5.20;99.90;;;;;;5107057;27;20044;-64
2023/01/29 11:09:03;;;;;;;35.72;21.20;;;5.20;99.90;;;;;;5087198;28;20044;-64
2023/01/29 11:11:49;;;;;;;30.65;18.90;;;5.20;99.90;;;;;;5091472;28;20412;-63
2023/01/29 11:14:28;;;;;;;28.58;17.73;;;5.20;99.90;;;;;;5107484;27;20139;-63
2023/01/29 11:16:55;;;;;;;33.35;18.63;;;5.20;99.90;;;;;;5106340;28;20086;-63
2023/01/29 11:19:41;;;;;;;36.67;21.75;;;5.20;99.90;;;;;;5100452;28;20048;-63
2023/01/29 11:22:28;;;;;;;47.20;20.35;;;5.30;99.90;;;;;;5105795;28;20035;-64
2023/01/29 11:25:28;;;;;;;19.17;11.82;;;5.20;99.90;;;;;;5097579;27;20515;-64
2023/01/29 11:28:00;;;;;;;34.00;21.02;;;5.20;99.90;;;;;;5082845;28;20074;-64
2023/01/29 11:30:26;;;;;;;29.08;18.80;;;5.20;99.90;;;;;;5104056;28;20155;-64
2023/01/29 11:33:05;;;;;;;30.02;18.52;;;5.20;99.90;;;;;;5105503;28;20495;-63
2023/01/29 11:35:32;;;;;;;28.88;18.65;;;5.20;99.90;;;;;;5105172;27;20028;-63
2023/01/29 11:38:24;;;;;;;32.38;20.27;;;5.20;99.90;;;;;;5096941;28;20520;-64
2023/01/29 11:40:50;;;;;;;37.13;21.90;;;5.20;99.90;;;;;;5102976;28;20513;-64
2023/01/29 11:43:20;;;;;;;31.65;20.10;;;5.20;99.90;;;;;;5102180;28;20054;-63
2023/01/29 11:45:50;;;;;;;36.42;21.90;;;5.20;99.90;;;;;;5104030;27;20047;-63
2023/01/29 11:48:42;;;;;;;32.58;17.98;;;5.20;99.90;;;;;;5093800;27;20048;-64
2023/01/29 11:51:11;;;;;;;31.10;17.40;;;5.20;99.90;;;;;;5098608;28;20047;-64
2023/01/29 11:53:44;;;;;;;26.52;15.70;;;5.20;99.90;;;;;;5101388;28;20035;-64
2023/01/29 11:56:25;;;;;;;34.40;20.30;;;5.20;99.90;;;;;;5096763;27;20050;-64
2023/01/29 11:58:56;;;;;;;29.73;20.65;;;5.20;99.90;;;;;;5119304;27;20336;-64
2023/01/29 12:01:35;;;;;;;;;;;5.20;99.90;;;;;;5124673;27;20047;-64
2023/01/29 12:04:03;;;;;;;25.23;15.43;;;5.20;99.90;;;;;;5105083;28;19960;-64
2023/01/29 12:06:34;;;;;;;20.83;13.15;;;5.30;99.90;;;;;;5103345;27;20066;-64
2023/01/29 12:09:02;;;;;;;23.00;14.23;;;5.30;99.90;;;;;;5102356;28;20054;-64
2023/01/29 12:11:31;;;;;;;22.02;14.80;;;5.30;99.90;;;;;;5104983;28;20161;-64
2023/01/29 12:13:59;;;;;;;29.52;19.13;;;5.30;99.90;;;;;;5105940;28;20067;-64
2023/01/29 12:16:38;;;;;;;28.08;14.68;;;5.30;99.90;;;;;;5100637;27;20078;-64
2023/01/29 12:19:12;;;;;;;28.85;17.60;;;5.40;99.90;;;;;;5104169;28;20075;-64
2023/01/29 12:21:41;;;;;;;23.92;15.57;;;5.50;99.90;;;;;;5098880;28;20044;-64
2023/01/29 12:24:32;;;;;;;31.10;18.65;;;5.50;99.90;;;;;;5103503;28;20050;-65
2023/01/29 12:27:30;;;;;;;20.88;12.60;;;5.50;99.90;;;;;;5100727;27;20501;-65
2023/01/29 12:30:05;;;;;;;27.77;14.30;;;5.50;99.90;;;;;;5103237;28;20842;-65
2023/01/29 12:33:04;;;;;;;22.75;14.95;;;5.50;99.90;;;;;;5103927;28;20096;-65
2023/01/29 12:35:53;;;;;;;25.88;16.20;;;5.50;99.90;;;;;;5068782;28;20653;-65
2023/01/29 12:38:22;;;;;;;25.35;17.42;;;5.40;99.90;;;;;;5103472;28;20485;-65
2023/01/29 12:41:16;;;;;;;21.20;13.68;;;5.40;99.90;;;;;;5104405;28;20465;-65
2023/01/29 12:43:50;;;;;;;28.40;14.93;;;5.40;99.90;;;;;;5084586;28;20058;-65
2023/01/29 12:46:33;;;;;;;17.42;9.93;;;5.40;99.90;;;;;;5103822;28;20633;-65
2023/01/29 12:49:03;;;;;;;29.40;15.23;;;5.40;99.90;;;;;;5102206;28;20123;-65
2023/01/29 12:51:36;;;;;;;23.52;12.30;;;5.40;99.90;;;;;;5098489;28;20165;-65
2023/01/29 12:54:15;;;;;;;12.48;7.55;;;5.40;99.90;;;;;;5095988;28;20051;-65
2023/01/29 12:56:47;;;;;;;23.15;15.43;;;5.40;99.90;;;;;;5094926;28;20755;-65
2023/01/29 12:59:13;;;;;;;25.83;17.20;;;5.40;99.90;;;;;;5098004;28;20039;-65
2023/01/29 13:01:47;;;;;;;23.83;15.05;;;5.50;99.90;;;;;;5103362;28;20054;-65
2023/01/29 13:04:35;;;;;;;25.88;14.45;;;5.50;99.90;;;;;;5107395;28;20071;-65
2023/01/29 13:07:20;;;;;;;29.38;18.65;;;5.50;99.90;;;;;;5105636;28;20047;-65
2023/01/29 13:09:53;;;;;;;23.10;14.70;;;5.40;99.90;;;;;;5104353;27;20144;-65
2023/01/29 13:12:21;;;;;;;28.83;14.88;;;5.50;99.90;;;;;;5107793;27;20044;-65
2023/01/29 13:14:53;;;;;;;24.00;14.52;;;5.50;99.90;;;;;;5096183;28;20093;-65
2023/01/29 13:17:29;;;;;;;25.23;15.88;;;5.50;99.90;;;;;;5101821;28;20031;-65
2023/01/29 13:20:08;;;;;;;24.15;15.32;;;5.50;99.90;;;;;;5098533;27;20088;-65
2023/01/29 13:22:38;;;;;;;22.25;15.85;;;5.60;99.90;;;;;;5098625;28;20485;-65
2023/01/29 13:25:04;;;;;;;24.92;15.02;;;5.60;99.90;;;;;;5106325;28;20478;-65
2023/01/29 13:27:33;;;;;;;19.25;12.55;;;5.60;99.90;;;;;;5101191;28;20079;-65
2023/01/29 13:29:59;;;;;;;22.05;13.95;;;5.60;99.90;;;;;;5106314;28;20095;-65
2023/01/29 13:32:31;;;;;;;24.27;15.57;;;5.60;99.90;;;;;;5101181;27;20086;-65
2023/01/29 13:35:11;;;;;;;25.30;17.45;;;5.60;99.90;;;;;;5093663;28;20054;-65